Time;durP1;ratioP1;P1;durP2;ratioP2;P2;SDS_P1;SDS_P2;PMS_P1;PMS_P2;Temp;Humidity;BMP_temperature;BMP_pressure;BME280_temperature;BME280_humidity;BME280_pressure;Samples;Min_cycle;Max_cycle;Signal;HPM_P1;HPM_P2
2024/04/17 00:02:15;;;;;;;9.80;2.90;;;;;;;8.30;55.88;97645.20;232648;203;137168;-56
2024/04/17 00:07:18;;;;;;;6.10;3.10;;;;;;;8.28;55.87;97631.89;232339;203;152935;-56
2024/04/17 00:12:21;;;;;;;6.10;3.10;;;;;;;8.22;56.58;97622.64;232595;204;137540;-57
2024/04/17 00:17:24;;;;;;;7.60;2.90;;;;;;;8.01;57.84;97616.45;232486;200;137014;-54
2024/04/17 00:22:27;;;;;;;6.80;3.10;;;;;;;7.79;58.81;97605.99;232466;203;151687;-56
2024/04/17 00:27:30;;;;;;;6.10;2.30;;;;;;;7.76;58.02;97594.42;232392;204;136643;-56
2024/04/17 00:32:34;;;;;;;8.20;3.00;;;;;;;7.87;56.87;97581.61;232391;204;136740;-56
2024/04/17 00:37:37;;;;;;;5.90;2.80;;;;;;;7.85;57.90;97583.75;232529;206;151519;-55
2024/04/17 00:42:40;;;;;;;7.00;2.90;;;;;;;7.71;58.23;97586.84;232523;204;137520;-58
2024/04/17 00:47:43;;;;;;;7.80;2.70;;;;;;;7.66;59.39;97585.48;232529;204;137738;-56
2024/04/17 00:52:46;;;;;;;6.30;2.80;;;;;;;7.56;59.78;97580.39;232409;206;151728;-55
2024/04/17 00:57:49;;;;;;;6.40;2.90;;;;;;;7.45;59.94;97571.33;232410;203;136446;-56
2024/04/17 01:02:52;;;;;;;6.30;2.70;;;;;;;7.30;60.22;97571.17;232528;206;139080;-57
2024/04/17 01:07:56;;;;;;;8.50;3.00;;;;;;;7.21;60.87;97574.62;232404;207;151216;-57
2024/04/17 01:13:01;;;;;;;5.80;3.00;;;;;;;7.17;61.28;97567.67;232423;203;136768;-57
2024/04/17 01:18:04;;;;;;;7.20;2.50;;;;;;;7.12;61.61;97571.20;232528;204;136542;-56
2024/04/17 01:23:08;;;;;;;6.90;2.90;;;;;;;7.04;61.67;97574.42;232433;206;151416;-57
2024/04/17 01:28:10;;;;;;;6.00;2.50;;;;;;;6.99;61.85;97566.66;232376;203;137545;-56
2024/04/17 01:33:14;;;;;;;10.20;3.50;;;;;;;6.96;62.37;97565.48;232504;206;137115;-55
2024/04/17 01:38:17;;;;;;;7.40;2.80;;;;;;;6.83;62.62;97554.74;232376;204;151478;-57
2024/04/17 01:43:19;;;;;;;9.70;2.90;;;;;;;6.65;62.93;97552.02;232540;206;136777;-56
2024/04/17 01:48:22;;;;;;;5.30;2.70;;;;;;;6.60;63.50;97547.41;232681;203;136601;-55
2024/04/17 01:53:26;;;;;;;8.80;2.70;;;;;;;6.66;63.94;97541.52;232645;206;151832;-55
2024/04/17 01:58:29;;;;;;;7.20;3.10;;;;;;;6.67;64.13;97541.48;232392;207;137608;-54
2024/04/17 02:03:35;;;;;;;21.00;3.90;;;;;;;6.64;64.30;97542.91;232453;204;138076;-54
2024/04/17 02:08:38;;;;;;;17.10;4.40;;;;;;;6.62;64.11;97544.09;232429;203;151767;-55
2024/04/17 02:13:41;;;;;;;8.30;4.10;;;;;;;6.53;64.05;97542.62;232555;206;138013;-57
2024/04/17 02:18:44;;;;;;;9.10;4.10;;;;;;;6.45;64.33;97540.55;232488;204;137399;-54
2024/04/17 02:23:47;;;;;;;14.50;4.30;;;;;;;6.36;64.68;97541.31;232601;204;151387;-56
2024/04/17 02:28:50;;;;;;;10.00;4.50;;;;;;;6.29;64.68;97541.79;232498;206;138156;-54
2024/04/17 02:33:53;;;;;;;8.90;4.30;;;;;;;6.28;64.93;97542.23;232557;199;138224;-56
2024/04/17 02:38:56;;;;;;;15.40;4.10;;;;;;;6.24;65.09;97537.43;232438;203;151524;-54
2024/04/17 02:43:59;;;;;;;7.30;4.30;;;;;;;6.24;65.62;97535.10;232561;199;136990;-58
2024/04/17 02:49:02;;;;;;;7.60;3.30;;;;;;;6.29;66.05;97534.61;232584;203;137341;-56
2024/04/17 02:54:05;;;;;;;6.60;3.20;;;;;;;6.38;66.13;97540.63;232547;203;151872;-56
2024/04/17 02:59:08;;;;;;;11.70;4.30;;;;;;;6.55;66.43;97537.86;232417;207;137966;-55
2024/04/17 03:04:11;;;;;;;8.60;3.70;;;;;;;6.70;65.93;97529.63;232499;204;136817;-55
2024/04/17 03:09:14;;;;;;;6.30;3.60;;;;;;;6.84;65.79;97522.77;232419;206;152413;-55
2024/04/17 03:14:17;;;;;;;10.90;3.70;;;;;;;6.91;65.58;97515.76;232478;206;137739;-56
2024/04/17 03:19:20;;;;;;;6.40;3.50;;;;;;;6.95;65.58;97509.89;232546;202;139501;-56
2024/04/17 03:24:23;;;;;;;6.60;3.20;;;;;;;6.91;65.61;97518.23;232630;207;151371;-56
2024/04/17 03:29:26;;;;;;;15.30;4.30;;;;;;;6.90;65.13;97518.48;232560;204;138981;-55
2024/04/17 03:34:29;;;;;;;24.00;7.20;;;;;;;6.89;65.77;97513.27;232493;205;137402;-56
2024/04/17 03:39:32;;;;;;;17.60;6.40;;;;;;;6.86;65.58;97518.25;232403;203;151953;-54
2024/04/17 03:44:34;;;;;;;19.90;6.30;;;;;;;6.79;65.43;97519.27;232339;207;137864;-54
2024/04/17 03:49:37;;;;;;;15.80;5.50;;;;;;;6.74;65.53;97520.54;232465;203;140728;-56
2024/04/17 03:54:41;;;;;;;13.30;5.60;;;;;;;6.72;65.95;97524.33;232508;203;151060;-55
2024/04/17 03:59:43;;;;;;;14.90;5.40;;;;;;;6.77;66.19;97523.66;232483;206;136908;-54
2024/04/17 04:04:46;;;;;;;113.00;66.00;;;;;;;6.86;67.46;97536.03;232456;206;136841;-55
2024/04/17 04:09:49;;;;;;;75.60;58.90;;;;;;;7.08;65.68;97545.23;232390;207;151969;-53
2024/04/17 04:14:52;;;;;;;60.70;26.80;;;;;;;7.27;64.74;97545.83;232486;204;137010;-54
2024/04/17 04:19:55;;;;;;;32.10;8.00;;;;;;;7.40;65.37;97554.00;232361;204;139256;-56
2024/04/17 04:24:58;;;;;;;18.50;6.50;;;;;;;7.48;65.47;97562.66;232387;203;153533;-54
2024/04/17 04:30:01;;;;;;;26.10;6.10;;;;;;;7.43;65.06;97574.81;232602;203;137916;-54
2024/04/17 04:35:05;;;;;;;25.30;5.60;;;;;;;7.43;64.92;97582.77;232518;206;140754;-54
2024/04/17 04:40:08;;;;;;;17.00;4.40;;;;;;;7.50;64.42;97594.05;232432;201;150532;-54
2024/04/17 04:45:11;;;;;;;11.20;4.80;;;;;;;7.57;63.30;97593.71;232503;207;137338;-54
2024/04/17 04:50:14;;;;;;;64.10;43.90;;;;;;;7.68;63.47;97593.61;232562;204;137537;-53
2024/04/17 04:55:17;;;;;;;15.60;7.20;;;;;;;7.83;62.99;97592.48;232514;203;151431;-54
2024/04/17 05:00:20;;;;;;;9.20;4.60;;;;;;;7.90;62.28;97599.28;232637;204;136450;-56
2024/04/17 05:05:22;;;;;;;14.00;4.90;;;;;;;7.93;62.15;97600.78;232590;199;136908;-58
2024/04/17 05:10:25;;;;;;;30.40;5.90;;;;;;;8.02;63.35;97605.39;232435;203;152358;-55
2024/04/17 05:15:28;;;;;;;39.40;6.70;;;;;;;8.06;63.65;97604.40;232539;206;138738;-54
2024/04/17 05:20:31;;;;;;;33.10;6.60;;;;;;;8.10;63.74;97606.38;232513;204;137959;-55
2024/04/17 05:25:34;;;;;;;33.30;7.50;;;;;;;8.11;64.17;97608.98;232507;206;152670;-57
2024/04/17 05:30:38;;;;;;;67.50;26.60;;;;;;;8.13;64.06;97606.69;232390;206;140315;-55
2024/04/17 05:35:40;;;;;;;33.90;14.50;;;;;;;8.18;64.78;97609.84;232635;206;136866;-55
2024/04/17 05:40:44;;;;;;;33.40;6.30;;;;;;;8.32;64.52;97616.58;232453;203;151327;-55
2024/04/17 05:45:47;;;;;;;30.30;6.30;;;;;;;8.45;64.53;97618.46;232381;204;137448;-53
2024/04/17 05:50:51;;;;;;;208.60;135.00;;;;;;;8.55;63.99;97619.44;232431;207;138747;-53
2024/04/17 05:55:54;;;;;;;25.00;10.10;;;;;;;8.68;63.46;97619.15;232495;203;151413;-54
2024/04/17 06:00:57;;;;;;;11.30;5.40;;;;;;;8.76;62.15;97625.45;232522;204;137878;-53
2024/04/17 06:06:00;;;;;;;12.00;5.00;;;;;;;8.79;61.07;97625.39;232628;206;140412;-53
2024/04/17 06:11:05;;;;;;;15.40;4.30;;;;;;;8.84;60.77;97625.88;232402;206;151236;-54
2024/04/17 06:16:08;;;;;;;16.10;4.50;;;;;;;8.88;60.94;97625.86;232452;203;136906;-53
2024/04/17 06:21:11;;;;;;;12.70;6.00;;;;;;;8.94;60.58;97627.25;232436;203;137021;-52
2024/04/17 06:26:15;;;;;;;21.10;11.70;;;;;;;9.03;60.85;97631.98;232426;207;151131;-53
2024/04/17 06:31:18;;;;;;;9.80;4.00;;;;;;;9.14;59.97;97630.97;232353;203;141005;-53
2024/04/17 06:36:21;;;;;;;8.90;3.80;;;;;;;9.19;59.60;97638.33;232578;206;136471;-54
2024/04/17 06:41:24;;;;;;;10.00;4.40;;;;;;;9.24;59.66;97639.67;232481;206;152379;-55
2024/04/17 06:46:30;;;;;;;10.00;4.70;;;;;;;9.31;59.66;97639.53;232557;203;137121;-54
2024/04/17 06:51:34;;;;;;;12.40;4.90;;;;;;;9.35;59.66;97643.59;232504;203;137399;-54
2024/04/17 06:56:37;;;;;;;12.90;5.10;;;;;;;9.38;59.48;97646.02;232465;203;151067;-54
2024/04/17 07:01:40;;;;;;;10.30;5.30;;;;;;;9.39;59.71;97646.86;232389;206;137439;-53
2024/04/17 07:06:43;;;;;;;13.40;5.90;;;;;;;9.36;59.87;97649.59;232513;203;136523;-50
2024/04/17 07:11:47;;;;;;;12.20;6.40;;;;;;;9.39;60.10;97652.52;232541;203;152073;-52
2024/04/17 07:16:50;;;;;;;13.80;7.50;;;;;;;9.37;60.52;97656.89;232463;203;137872;-54
2024/04/17 07:21:53;;;;;;;315.00;224.50;;;;;;;9.41;61.13;97661.20;232423;204;137123;-54
2024/04/17 07:26:56;;;;;;;20.40;11.60;;;;;;;9.47;61.30;97661.45;232244;207;151819;-54
2024/04/17 07:31:59;;;;;;;14.10;8.10;;;;;;;9.47;61.09;97665.87;232316;206;137063;-54
2024/04/17 07:37:04;;;;;;;15.20;7.70;;;;;;;9.52;61.11;97666.91;232624;203;137433;-54
2024/04/17 07:42:07;;;;;;;93.60;63.00;;;;;;;9.54;61.17;97670.06;232607;207;151132;-53
2024/04/17 07:47:10;;;;;;;16.60;9.30;;;;;;;9.58;61.35;97670.33;232453;207;140550;-54
2024/04/17 07:52:13;;;;;;;14.90;8.80;;;;;;;9.58;61.13;97675.28;232423;204;137714;-53
2024/04/17 07:57:16;;;;;;;12.60;8.10;;;;;;;9.55;61.07;97671.28;232395;207;151448;-53
2024/04/17 08:02:19;;;;;;;14.20;8.40;;;;;;;9.50;61.03;97674.48;232370;207;137229;-52
2024/04/17 08:07:22;;;;;;;505.20;327.70;;;;;;;9.42;61.53;97676.48;232584;207;137457;-52
2024/04/17 08:12:25;;;;;;;22.60;13.50;;;;;;;9.49;62.46;97681.09;232181;207;153718;-53
2024/04/17 08:17:28;;;;;;;18.40;9.90;;;;;;;9.54;62.06;97686.73;232440;207;137265;-53
2024/04/17 08:22:31;;;;;;;20.40;8.50;;;;;;;9.52;62.36;97694.16;232391;203;136551;-53
2024/04/17 08:27:34;;;;;;;9.70;6.80;;;;;;;9.54;62.53;97697.52;232338;207;151763;-55
2024/04/17 08:32:41;;;;;;;9.00;6.00;;;;;;;9.51;62.19;97699.52;232448;199;136656;-54
2024/04/17 08:37:45;;;;;;;7.30;6.00;;;;;;;9.47;62.22;97712.05;232380;207;137542;-52
2024/04/17 08:42:51;;;;;;;6.60;5.30;;;;;;;9.47;62.31;97719.63;232360;203;151565;-52
2024/04/17 08:47:55;;;;;;;;;;;;;;;9.51;62.10;97723.77;232354;207;136466;-52
2024/04/17 08:52:59;;;;;;;170.60;109.70;;;;;;;9.52;62.10;97727.48;232504;204;135390;-53
2024/04/17 08:58:03;;;;;;;10.90;7.40;;;;;;;9.49;62.26;97728.41;232319;203;152557;-54
2024/04/17 09:03:11;;;;;;;9.60;6.50;;;;;;;9.53;62.11;97729.15;232389;199;138091;-52
2024/04/17 09:08:16;;;;;;;8.90;6.00;;;;;;;9.52;61.95;97730.83;232417;206;137764;-54
2024/04/17 09:13:19;;;;;;;7.70;4.70;;;;;;;9.52;62.03;97733.12;232454;206;151464;-55
2024/04/17 09:18:28;;;;;;;6.80;4.60;;;;;;;9.56;61.98;97737.58;232397;207;136511;-53
2024/04/17 09:23:31;;;;;;;8.10;5.10;;;;;;;9.68;61.96;97736.80;232468;203;137034;-53
2024/04/17 09:28:34;;;;;;;5.90;5.00;;;;;;;9.80;61.98;97739.00;232260;203;151366;-53
2024/04/17 09:33:47;;;;;;;7.40;5.20;;;;;;;9.90;62.09;97741.55;232389;204;137485;-53
2024/04/17 09:38:50;;;;;;;7.00;4.70;;;;;;;10.03;61.56;97742.65;232243;203;137118;-53
2024/04/17 09:43:56;;;;;;;7.30;4.50;;;;;;;10.19;60.76;97739.97;232239;203;151915;-53
2024/04/17 09:49:07;;;;;;;6.20;4.80;;;;;;;10.35;60.21;97737.96;232285;206;137067;-52
2024/04/17 09:54:12;;;;;;;11.10;7.00;;;;;;;10.35;59.87;97740.47;232458;199;136942;-52
2024/04/17 09:59:19;;;;;;;9.20;7.30;;;;;;;10.30;59.69;97742.27;232348;203;151086;-52
2024/04/17 10:04:24;;;;;;;8.20;7.30;;;;;;;10.24;59.99;97744.68;232304;206;136947;-54
2024/04/17 10:09:29;;;;;;;14.20;10.50;;;;;;;10.14;60.39;97745.64;232276;203;137550;-53
2024/04/17 10:14:33;;;;;;;81.90;61.20;;;;;;;10.13;60.73;97751.42;232347;204;151372;-54
2024/04/17 10:19:37;;;;;;;19.50;12.10;;;;;;;10.05;60.85;97758.95;232203;203;140039;-54
2024/04/17 10:24:39;;;;;;;20.00;13.30;;;;;;;10.03;60.84;97754.88;232412;200;137359;-53
2024/04/17 10:29:43;;;;;;;17.70;14.60;;;;;;;10.02;60.81;97760.27;232477;207;151482;-53
2024/04/17 10:34:53;;;;;;;25.20;17.40;;;;;;;9.98;60.72;97762.88;232219;203;138551;-54
2024/04/17 10:39:56;;;;;;;25.30;18.70;;;;;;;10.02;60.78;97759.62;232212;205;138244;-53
2024/04/17 10:44:59;;;;;;;26.50;19.10;;;;;;;10.02;60.74;97756.73;232402;206;151132;-53
2024/04/17 10:50:04;;;;;;;26.30;18.10;;;;;;;10.07;60.92;97761.61;232347;206;137960;-53
2024/04/17 10:55:10;;;;;;;24.00;18.30;;;;;;;10.03;60.53;97766.04;232410;200;137473;-54
2024/04/17 11:00:14;;;;;;;23.50;17.60;;;;;;;9.94;60.40;97771.73;232488;205;151649;-53
2024/04/17 11:05:17;;;;;;;21.50;16.60;;;;;;;9.87;60.54;97770.34;232402;206;137342;-54
2024/04/17 11:10:20;;;;;;;30.60;21.30;;;;;;;9.83;60.64;97779.34;232605;206;137218;-56
2024/04/17 11:15:23;;;;;;;30.50;21.40;;;;;;;9.80;60.50;97783.81;232321;207;151360;-55
2024/04/17 11:20:26;;;;;;;25.30;18.80;;;;;;;9.80;60.50;97788.97;232352;204;138633;-55
2024/04/17 11:25:29;;;;;;;22.80;15.20;;;;;;;9.78;60.21;97786.97;232400;204;138002;-54
2024/04/17 11:30:32;;;;;;;22.30;15.00;;;;;;;9.80;59.78;97789.35;232430;199;151470;-53
2024/04/17 11:35:35;;;;;;;20.30;14.70;;;;;;;9.80;59.72;97793.07;232575;204;140879;-53
2024/04/17 11:40:42;;;;;;;11.10;8.10;;;;;;;9.82;59.27;97792.70;232351;207;138192;-53
2024/04/17 11:45:46;;;;;;;12.30;7.40;;;;;;;9.84;58.34;97792.90;232415;203;151251;-54
2024/04/17 11:50:49;;;;;;;8.20;7.10;;;;;;;9.88;57.85;97795.77;232338;207;137708;-54
2024/04/17 11:55:51;;;;;;;9.80;7.10;;;;;;;9.93;57.88;97798.52;232483;204;139286;-52
2024/04/17 12:00:56;;;;;;;7.60;6.30;;;;;;;10.01;57.55;97800.25;232420;203;151375;-54
2024/04/17 12:05:59;;;;;;;17.40;10.40;;;;;;;9.99;57.34;97806.55;232487;207;136430;-54
2024/04/17 12:11:02;;;;;;;17.80;10.30;;;;;;;9.92;57.19;97812.41;232266;207;138083;-54
2024/04/17 12:16:08;;;;;;;8.80;7.80;;;;;;;9.77;57.31;97815.21;232466;203;151977;-53
2024/04/17 12:21:11;;;;;;;;;;;;;;;9.76;57.81;97815.70;232363;206;136633;-53
2024/04/17 12:31:35;;;;;;;6.70;6.00;;;;;;;9.85;56.21;97811.23;232418;206;151518;-53
2024/04/17 12:36:38;;;;;;;8.50;5.60;;;;;;;9.95;55.92;97812.53;232408;203;137416;-53
2024/04/17 12:41:41;;;;;;;8.00;5.60;;;;;;;10.04;55.65;97811.29;232623;204;137304;-55
2024/04/17 12:46:44;;;;;;;5.60;5.00;;;;;;;10.09;55.09;97812.53;232496;206;152634;-53
2024/04/17 12:51:48;;;;;;;10.50;4.90;;;;;;;10.13;54.64;97808.30;232233;206;138502;-54
2024/04/17 12:56:51;;;;;;;5.20;4.00;;;;;;;10.20;53.88;97807.39;232453;206;140451;-53
2024/04/17 13:01:54;;;;;;;5.80;3.50;;;;;;;10.27;53.40;97805.25;232348;203;153045;-54
2024/04/17 13:06:57;;;;;;;4.50;3.40;;;;;;;10.37;53.01;97806.76;232295;203;138527;-53
2024/04/17 13:12:00;;;;;;;7.20;3.70;;;;;;;10.46;52.57;97807.30;232508;204;136996;-53
2024/04/17 13:17:04;;;;;;;5.70;3.50;;;;;;;10.55;52.55;97799.69;232385;203;151090;-54
2024/04/17 13:22:07;;;;;;;5.90;3.20;;;;;;;10.58;52.42;97796.67;232351;204;137083;-54
2024/04/17 13:27:11;;;;;;;7.00;2.90;;;;;;;10.60;52.24;97796.39;232330;204;137447;-54
2024/04/17 13:32:13;;;;;;;4.20;2.50;;;;;;;10.68;51.56;97795.57;232440;206;151412;-54
2024/04/17 13:37:16;;;;;;;4.30;2.60;;;;;;;10.72;50.42;97796.84;232435;207;136828;-53
2024/04/17 13:42:20;;;;;;;8.80;2.10;;;;;;;10.74;50.18;97799.99;232635;206;137006;-53
2024/04/17 13:47:23;;;;;;;3.10;2.00;;;;;;;10.80;50.33;97802.67;232336;203;151727;-53
2024/04/17 13:52:29;;;;;;;2.80;2.00;;;;;;;10.89;50.21;97801.63;232308;207;137352;-54
2024/04/17 13:57:33;;;;;;;2.70;2.10;;;;;;;10.97;49.84;97800.10;232305;206;137417;-54
2024/04/17 14:02:36;;;;;;;4.10;1.70;;;;;;;11.00;50.03;97802.08;232274;207;150957;-54
2024/04/17 14:07:39;;;;;;;4.10;2.60;;;;;;;11.00;50.19;97805.30;232147;205;136759;-53
2024/04/17 14:12:42;;;;;;;7.70;3.80;;;;;;;11.02;50.45;97805.82;232274;204;137339;-53
2024/04/17 14:17:45;;;;;;;5.80;3.50;;;;;;;11.03;50.61;97805.75;232505;203;151285;-53
2024/04/17 14:22:49;;;;;;;7.20;3.90;;;;;;;11.05;50.58;97804.17;232375;206;137320;-53
2024/04/17 14:27:52;;;;;;;6.60;3.70;;;;;;;11.08;50.74;97803.33;232437;203;136573;-53
2024/04/17 14:32:55;;;;;;;8.60;3.90;;;;;;;11.11;50.65;97801.36;232331;199;151748;-52
2024/04/17 14:37:58;;;;;;;5.90;4.30;;;;;;;11.15;50.28;97797.15;232252;205;136930;-55
2024/04/17 14:43:01;;;;;;;4.70;3.70;;;;;;;11.23;49.91;97795.92;232264;204;137679;-53
2024/04/17 14:48:04;;;;;;;5.70;3.80;;;;;;;11.25;49.54;97795.91;232521;206;151560;-53
2024/04/17 14:53:07;;;;;;;4.60;3.60;;;;;;;11.25;49.57;97796.98;232341;204;138430;-53
2024/04/17 14:58:10;;;;;;;4.50;3.90;;;;;;;11.25;49.72;97794.17;232304;204;137462;-54
2024/04/17 15:03:14;;;;;;;5.50;4.50;;;;;;;11.21;49.87;97796.31;232453;204;153080;-54
2024/04/17 15:08:17;;;;;;;5.10;4.60;;;;;;;11.22;50.06;97798.46;232669;206;136627;-54
2024/04/17 15:13:21;;;;;;;8.30;4.80;;;;;;;11.20;50.06;97799.90;232651;206;137748;-53
2024/04/17 15:18:24;;;;;;;6.80;4.50;;;;;;;11.16;50.38;97806.30;232766;203;151607;-55
2024/04/17 15:23:27;;;;;;;5.90;4.60;;;;;;;11.14;50.56;97814.95;232518;206;136988;-53
2024/04/17 15:28:30;;;;;;;10.00;5.10;;;;;;;11.06;51.11;97821.65;232679;203;137547;-53
2024/04/17 15:33:35;;;;;;;9.50;5.20;;;;;;;10.93;52.75;97831.96;232446;207;151486;-53
2024/04/17 15:38:38;;;;;;;6.70;4.40;;;;;;;10.73;55.26;97837.73;232688;206;137176;-55
2024/04/17 15:43:42;;;;;;;7.70;4.70;;;;;;;10.44;56.38;97844.17;232428;203;137718;-53
2024/04/17 15:48:46;;;;;;;6.00;4.60;;;;;;;10.26;57.63;97846.28;232783;203;151986;-53
2024/04/17 15:53:49;;;;;;;4.60;3.90;;;;;;;10.10;58.69;97849.30;232762;203;136485;-52
2024/04/17 15:58:52;;;;;;;3.30;2.80;;;;;;;10.02;59.56;97858.30;232767;204;137679;-51
2024/04/17 16:03:56;;;;;;;4.60;2.80;;;;;;;9.97;59.81;97856.21;232704;206;151115;-53
2024/04/17 16:08:59;;;;;;;3.50;2.50;;;;;;;9.92;59.86;97863.48;232715;207;136987;-53
2024/04/17 16:14:02;;;;;;;3.30;2.20;;;;;;;9.85;59.96;97867.39;232706;203;137243;-51
2024/04/17 16:19:06;;;;;;;3.90;2.70;;;;;;;9.82;60.08;97871.38;232781;203;152308;-53
2024/04/17 16:24:10;;;;;;;3.50;2.20;;;;;;;9.83;60.38;97880.14;232857;206;137944;-51
2024/04/17 16:29:13;;;;;;;2.70;1.60;;;;;;;9.79;60.98;97885.40;232788;203;136433;-53
2024/04/17 16:34:16;;;;;;;1.60;1.00;;;;;;;9.74;60.72;97892.52;232690;203;151548;-52
2024/04/17 16:39:19;;;;;;;2.80;1.10;;;;;;;9.69;60.22;97903.19;232610;203;137608;-52
2024/04/17 16:44:22;;;;;;;2.50;1.40;;;;;;;9.62;60.30;97908.13;232728;206;136699;-54
2024/04/17 16:49:25;;;;;;;1.90;1.30;;;;;;;9.59;60.51;97914.95;232726;206;152717;-54
2024/04/17 16:54:28;;;;;;;2.90;1.70;;;;;;;9.54;60.91;97913.87;232927;206;136398;-53
2024/04/17 16:59:32;;;;;;;3.00;2.00;;;;;;;9.46;61.33;97922.25;232890;203;136684;-55
2024/04/17 17:04:35;;;;;;;3.30;2.20;;;;;;;9.44;61.90;97923.45;232652;207;152463;-52
2024/04/17 17:09:38;;;;;;;3.70;2.40;;;;;;;9.39;62.46;97923.31;232719;203;137876;-54
2024/04/17 17:14:41;;;;;;;4.30;2.90;;;;;;;9.28;63.11;97931.82;232741;206;137781;-52
2024/04/17 17:19:47;;;;;;;3.10;2.50;;;;;;;9.22;63.52;97939.41;232724;203;152418;-53
2024/04/17 17:24:50;;;;;;;4.30;2.90;;;;;;;9.16;63.51;97941.48;232753;203;138105;-54
2024/04/17 17:29:53;;;;;;;4.20;3.30;;;;;;;9.09;63.70;97950.89;232885;203;137068;-56
2024/04/17 17:34:56;;;;;;;5.60;2.90;;;;;;;9.04;64.23;97958.48;232680;203;151071;-57
2024/04/17 17:39:59;;;;;;;3.00;2.60;;;;;;;9.03;64.24;97963.17;232636;202;137307;-55
2024/04/17 17:45:03;;;;;;;4.20;2.80;;;;;;;9.08;64.53;97969.84;232703;203;137664;-57
2024/04/17 17:50:06;;;;;;;3.70;2.70;;;;;;;9.19;64.66;97979.66;232748;203;152157;-53
2024/04/17 17:55:16;;;;;;;5.10;3.40;;;;;;;9.30;64.47;97987.94;232684;203;136839;-56
2024/04/17 18:00:19;;;;;;;5.20;3.80;;;;;;;9.33;64.29;97999.40;232887;203;137041;-56
2024/04/17 18:05:22;;;;;;;6.10;3.90;;;;;;;9.26;63.86;98005.56;232610;203;152296;-55
2024/04/17 18:10:32;;;;;;;6.80;4.50;;;;;;;9.21;64.22;98012.25;232645;207;137164;-53
2024/04/17 18:15:36;;;;;;;5.50;4.30;;;;;;;9.17;64.47;98013.98;232721;203;136671;-54
2024/04/17 18:20:39;;;;;;;6.60;5.10;;;;;;;9.14;64.38;98020.91;232667;206;152253;-55
2024/04/17 18:25:43;;;;;;;7.70;5.10;;;;;;;9.13;64.55;98025.22;232673;204;136755;-54
2024/04/17 18:30:55;;;;;;;7.40;4.80;;;;;;;9.10;64.90;98029.14;232675;206;136891;-57
2024/04/17 18:35:58;;;;;;;6.70;4.90;;;;;;;9.09;65.10;98035.83;232853;203;151422;-56
2024/04/17 18:41:23;;;;;;;9.60;5.60;;;;;;;9.05;65.26;98045.34;232718;203;137277;-57
2024/04/17 18:46:29;;;;;;;8.60;5.70;;;;;;;9.03;65.65;98050.56;232758;203;136939;-54
2024/04/17 18:51:32;;;;;;;8.00;5.60;;;;;;;9.03;65.80;98052.73;232753;199;151401;-57
2024/04/17 18:56:35;;;;;;;10.80;6.70;;;;;;;9.04;65.74;98058.10;232693;206;140504;-54
2024/04/17 19:01:38;;;;;;;7.90;5.10;;;;;;;9.04;65.27;98055.48;232778;206;137230;-57
2024/04/17 19:06:42;;;;;;;8.30;6.00;;;;;;;9.04;65.48;98058.43;232724;203;151183;-55
2024/04/17 19:11:46;;;;;;;8.20;5.70;;;;;;;9.12;65.31;98065.48;232752;206;137887;-53
2024/04/17 19:16:50;;;;;;;10.80;6.40;;;;;;;9.17;64.89;98069.55;232602;199;136414;-54
2024/04/17 19:21:53;;;;;;;9.40;7.30;;;;;;;9.17;64.72;98073.98;232727;203;151554;-55
2024/04/17 19:26:57;;;;;;;8.20;6.20;;;;;;;9.12;64.61;98077.30;232696;203;137897;-55
2024/04/17 19:32:00;;;;;;;10.30;6.20;;;;;;;9.11;64.65;98082.03;232734;203;140535;-54
2024/04/17 19:37:03;;;;;;;8.80;6.40;;;;;;;9.10;64.56;98083.17;232702;203;151569;-57
2024/04/17 19:42:06;;;;;;;9.20;6.40;;;;;;;9.05;64.45;98088.86;232912;203;136491;-53
2024/04/17 19:47:22;;;;;;;7.00;5.30;;;;;;;9.04;64.48;98087.48;232734;203;136933;-54
2024/04/17 19:52:25;;;;;;;6.80;5.20;;;;;;;9.02;64.18;98091.48;232755;203;151764;-53
2024/04/17 19:57:33;;;;;;;9.00;6.50;;;;;;;8.98;63.86;98092.33;232712;203;136733;-54
2024/04/17 20:02:36;;;;;;;9.40;5.90;;;;;;;8.92;63.94;98096.80;232750;203;138052;-53
2024/04/17 20:07:40;;;;;;;31.30;21.40;;;;;;;8.90;64.45;98093.23;232563;206;152353;-55
2024/04/17 20:12:43;;;;;;;11.40;6.60;;;;;;;8.93;64.00;98093.00;232736;203;137434;-53
2024/04/17 20:17:47;;;;;;;7.90;6.00;;;;;;;8.88;63.79;98092.46;232903;203;136526;-52
2024/04/17 20:22:50;;;;;;;9.90;6.00;;;;;;;8.87;63.79;98089.95;232712;203;151254;-52
2024/04/17 20:27:53;;;;;;;10.80;5.80;;;;;;;8.85;63.48;98085.61;232610;203;137216;-50
2024/04/17 20:32:56;;;;;;;8.20;5.30;;;;;;;8.87;63.38;98085.30;232727;202;137636;-52
2024/04/17 20:37:59;;;;;;;8.00;5.50;;;;;;;8.87;63.46;98080.55;232695;203;152521;-53
2024/04/17 20:43:02;;;;;;;8.60;5.40;;;;;;;8.84;63.24;98085.33;232718;203;136327;-52
2024/04/17 20:48:05;;;;;;;9.50;5.90;;;;;;;8.82;63.34;98089.19;232840;204;137871;-52
2024/04/17 20:53:11;;;;;;;9.40;5.20;;;;;;;8.80;63.06;98093.09;232724;203;151896;-52
2024/04/17 20:58:14;;;;;;;7.90;5.70;;;;;;;8.81;62.96;98100.61;232677;206;137179;-53
2024/04/17 21:03:17;;;;;;;8.80;5.70;;;;;;;8.79;62.91;98100.55;232705;206;136483;-52
2024/04/17 21:08:21;;;;;;;9.40;6.00;;;;;;;8.75;62.79;98103.30;232676;199;151327;-53
2024/04/17 21:13:24;;;;;;;8.00;5.90;;;;;;;8.68;62.76;98104.11;232636;200;137218;-53
2024/04/17 21:18:29;;;;;;;9.40;6.80;;;;;;;8.65;62.79;98104.89;232875;199;136716;-52
2024/04/17 21:23:34;;;;;;;10.90;6.50;;;;;;;8.63;62.90;98103.95;232694;206;151991;-53
2024/04/17 21:28:42;;;;;;;10.10;6.80;;;;;;;8.60;62.91;98111.98;232729;203;140204;-52
2024/04/17 21:33:46;;;;;;;10.60;6.60;;;;;;;8.55;63.04;98114.93;232647;203;136632;-53
2024/04/17 21:38:49;;;;;;;9.90;6.30;;;;;;;8.47;63.20;98111.42;232701;203;150968;-53
2024/04/17 21:43:52;;;;;;;9.60;6.70;;;;;;;8.39;63.32;98113.58;232703;203;140145;-52
2024/04/17 21:48:55;;;;;;;11.80;6.60;;;;;;;8.32;63.52;98119.52;232712;203;137221;-52
2024/04/17 21:53:59;;;;;;;9.70;6.50;;;;;;;8.24;63.58;98127.76;232878;203;151451;-51
2024/04/17 21:59:02;;;;;;;9.60;6.50;;;;;;;8.18;63.85;98134.58;232177;199;136926;-54
2024/04/17 22:04:05;;;;;;;9.80;7.00;;;;;;;8.13;64.10;98138.82;232666;206;139772;-54
2024/04/17 22:09:09;;;;;;;10.80;8.20;;;;;;;8.07;64.26;98142.88;232721;204;151442;-52
2024/04/17 22:14:16;;;;;;;15.40;10.50;;;;;;;8.03;64.28;98146.33;232647;199;136798;-53
2024/04/17 22:19:19;;;;;;;12.40;8.50;;;;;;;7.95;64.20;98147.71;232670;206;140835;-52
2024/04/17 22:24:22;;;;;;;12.70;8.10;;;;;;;7.85;64.54;98149.80;232760;207;151370;-53
2024/04/17 22:29:25;;;;;;;10.60;7.20;;;;;;;7.76;64.54;98154.95;232675;206;137336;-54
2024/04/17 22:34:28;;;;;;;12.50;8.70;;;;;;;7.67;64.78;98155.92;232724;206;137902;-52
2024/04/17 22:39:31;;;;;;;10.50;8.00;;;;;;;7.61;64.85;98162.86;232680;206;151352;-53
2024/04/17 22:44:34;;;;;;;12.50;8.60;;;;;;;7.56;64.85;98163.33;232715;199;137258;-52
2024/04/17 22:49:37;;;;;;;13.30;8.60;;;;;;;7.50;64.92;98166.91;232695;206;136476;-54
2024/04/17 22:54:40;;;;;;;14.80;8.50;;;;;;;7.43;64.91;98174.02;232089;207;152014;-53
2024/04/17 22:59:43;;;;;;;11.70;8.10;;;;;;;7.36;65.21;98174.80;232784;206;136453;-50
2024/04/17 23:04:47;;;;;;;14.50;8.30;;;;;;;7.28;65.54;98177.11;232666;203;138511;-54
2024/04/17 23:09:51;;;;;;;10.70;7.80;;;;;;;7.22;65.45;98180.64;232650;207;152245;-52
2024/04/17 23:14:54;;;;;;;13.80;9.10;;;;;;;7.17;65.76;98179.54;232689;203;140250;-53
2024/04/17 23:19:57;;;;;;;14.60;8.60;;;;;;;7.12;66.04;98183.08;232755;203;138142;-53
2024/04/17 23:25:00;;;;;;;18.10;9.10;;;;;;;7.04;66.12;98188.64;232668;203;151593;-52
2024/04/17 23:30:03;;;;;;;14.10;8.80;;;;;;;6.99;66.32;98185.80;232811;203;137160;-53
2024/04/17 23:35:06;;;;;;;11.60;8.00;;;;;;;6.98;66.26;98181.09;232712;203;140697;-55
2024/04/17 23:40:10;;;;;;;13.30;8.80;;;;;;;7.02;66.17;98183.32;232690;207;151218;-54